Time;durP1;ratioP1;P1;durP2;ratioP2;P2;SDS_P1;SDS_P2;PMS_P1;PMS_P2;Temp;Humidity;BMP_temperature;BMP_pressure;BME280_temperature;BME280_humidity;BME280_pressure;Samples;Min_cycle;Max_cycle;Signal;HPM_P1;HPM_P2
2022/08/16 00:02:29;;;;;;;7.90;6.87;;;21.70;99.90;;;;;;5022574;28;20200;-51
2022/08/16 00:04:57;;;;;;;8.20;6.90;;;21.70;99.90;;;;;;5019774;28;20212;-52
2022/08/16 00:07:27;;;;;;;12.53;6.93;;;21.70;99.90;;;;;;5022318;28;20206;-51
2022/08/16 00:09:57;;;;;;;10.33;7.13;;;21.70;99.90;;;;;;5019867;28;20208;-51
2022/08/16 00:12:27;;;;;;;9.47;7.30;;;21.70;99.90;;;;;;5021809;28;20212;-50
2022/08/16 00:14:54;;;;;;;10.47;8.20;;;21.70;99.90;;;;;;5022397;28;20216;-51
2022/08/16 00:17:23;;;;;;;10.70;7.53;;;21.60;99.90;;;;;;5018597;28;20212;-50
2022/08/16 00:19:51;;;;;;;9.00;7.50;;;21.70;99.90;;;;;;5021459;28;20232;-51
2022/08/16 00:22:20;;;;;;;9.13;7.50;;;21.60;99.90;;;;;;5021370;28;20752;-51
2022/08/16 00:24:52;;;;;;;10.27;7.20;;;21.60;99.90;;;;;;5022042;28;20201;-53
2022/08/16 00:27:21;;;;;;;11.00;7.50;;;21.60;99.90;;;;;;5021323;28;20212;-50
2022/08/16 00:29:49;;;;;;;8.67;7.53;;;21.70;99.90;;;;;;5023235;28;20201;-51
2022/08/16 00:32:37;;;;;;;9.07;8.17;;;21.60;99.90;;;;;;5020821;28;20213;-51
2022/08/16 00:35:05;;;;;;;11.13;7.70;;;21.60;99.90;;;;;;5021268;28;20205;-51
2022/08/16 00:37:42;;;;;;;9.53;7.83;;;21.50;99.90;;;;;;5021655;28;20591;-50
2022/08/16 00:40:38;;;;;;;9.17;7.73;;;21.50;99.90;;;;;;5021003;28;20204;-50
2022/08/16 00:43:24;;;;;;;12.87;8.33;;;21.50;99.90;;;;;;5021515;28;20617;-50
2022/08/16 00:46:13;;;;;;;10.20;7.90;;;21.40;99.90;;;;;;5021752;28;20216;-50
2022/08/16 00:48:59;;;;;;;8.90;7.20;;;21.40;99.90;;;;;;5021156;28;20217;-51
2022/08/16 00:51:28;;;;;;;8.90;7.53;;;21.40;99.90;;;;;;5021635;28;20262;-51
2022/08/16 00:53:57;;;;;;;8.77;7.87;;;21.40;99.90;;;;;;5019789;28;20702;-50
2022/08/16 00:56:29;;;;;;;12.10;8.30;;;21.40;99.90;;;;;;5020694;28;20226;-51
2022/08/16 00:59:19;;;;;;;12.43;7.77;;;21.30;99.90;;;;;;5021753;28;20240;-52
2022/08/16 01:01:51;;;;;;;12.23;7.93;;;21.40;99.90;;;;;;5020626;28;20213;-50
2022/08/16 01:04:21;;;;;;;10.00;8.53;;;21.40;99.90;;;;;;5021712;28;20256;-50
2022/08/16 01:06:57;;;;;;;12.40;8.00;;;21.50;99.90;;;;;;5021381;28;20714;-52
2022/08/16 01:09:32;;;;;;;11.13;8.47;;;21.50;99.90;;;;;;5020986;28;20572;-51
2022/08/16 01:12:02;;;;;;;13.97;9.10;;;21.40;99.90;;;;;;5020880;28;20202;-50
2022/08/16 01:14:36;;;;;;;11.23;9.10;;;21.40;99.90;;;;;;5020297;28;20201;-51
2022/08/16 01:17:04;;;;;;;10.93;8.63;;;21.40;99.90;;;;;;5019752;28;20235;-52
2022/08/16 01:19:48;;;;;;;9.20;8.17;;;21.30;99.90;;;;;;5026934;28;20282;-51
2022/08/16 01:22:25;;;;;;;10.07;8.57;;;21.20;99.90;;;;;;5020908;28;20598;-51
2022/08/16 01:25:28;;;;;;;8.93;8.03;;;21.30;99.90;;;;;;5020369;28;20216;-50
2022/08/16 01:28:03;;;;;;;10.40;8.50;;;21.20;99.90;;;;;;5020488;28;20209;-51
2022/08/16 01:30:33;;;;;;;11.40;8.50;;;21.20;99.90;;;;;;5019482;28;20202;-51
2022/08/16 01:33:15;;;;;;;11.47;8.10;;;21.30;99.90;;;;;;5019959;28;20237;-50
2022/08/16 01:35:54;;;;;;;12.83;9.50;;;21.30;99.90;;;;;;5019790;28;20291;-48
2022/08/16 01:38:22;;;;;;;11.80;9.27;;;21.00;99.90;;;;;;5020380;28;20287;-50
2022/08/16 01:40:59;;;;;;;9.57;7.97;;;21.10;99.90;;;;;;5019574;28;20251;-51
2022/08/16 01:43:29;;;;;;;10.27;8.90;;;21.10;99.90;;;;;;5020403;28;20203;-51
2022/08/16 01:46:00;;;;;;;9.73;8.47;;;21.10;99.90;;;;;;5020355;28;20213;-50
2022/08/16 01:48:52;;;;;;;10.07;8.77;;;21.00;99.90;;;;;;5019102;28;20212;-50
2022/08/16 01:51:22;;;;;;;10.77;9.00;;;21.10;99.90;;;;;;5014866;28;20258;-50
2022/08/16 01:53:50;;;;;;;10.17;9.17;;;21.00;99.90;;;;;;5019675;28;20215;-50
2022/08/16 01:56:22;;;;;;;9.93;8.93;;;20.90;99.90;;;;;;5019907;28;20209;-50
2022/08/16 01:58:53;;;;;;;10.40;8.57;;;21.00;99.90;;;;;;5019016;28;20294;-51
2022/08/16 02:01:21;;;;;;;11.90;9.13;;;20.90;99.90;;;;;;5019638;28;20665;-49
2022/08/16 02:03:51;;;;;;;9.67;8.70;;;20.90;99.90;;;;;;5020096;28;20532;-50
2022/08/16 02:06:24;;;;;;;10.67;9.57;;;20.80;99.90;;;;;;5018861;28;20209;-50
2022/08/16 02:09:06;;;;;;;10.00;8.87;;;20.80;99.90;;;;;;5019838;28;20224;-49
2022/08/16 02:11:42;;;;;;;10.50;8.67;;;20.70;99.90;;;;;;5019971;28;20205;-50
2022/08/16 02:14:21;;;;;;;10.70;9.60;;;20.50;99.90;;;;;;5020421;28;20215;-50
2022/08/16 02:16:52;;;;;;;11.43;8.83;;;20.50;99.90;;;;;;5018696;28;20296;-50
2022/08/16 02:19:20;;;;;;;12.30;10.03;;;20.50;99.90;;;;;;5019474;28;20212;-49
2022/08/16 02:21:51;;;;;;;12.13;9.13;;;20.40;99.90;;;;;;5018811;28;20214;-50
2022/08/16 02:24:39;;;;;;;12.30;8.93;;;20.30;99.90;;;;;;5019287;28;20665;-49
2022/08/16 02:27:12;;;;;;;10.27;8.97;;;20.30;99.90;;;;;;5020117;28;20199;-49
2022/08/16 02:29:41;;;;;;;11.53;9.83;;;20.40;99.90;;;;;;5018974;28;20262;-50
2022/08/16 02:32:11;;;;;;;11.53;10.33;;;20.30;99.90;;;;;;5018945;28;20292;-50
2022/08/16 02:34:58;;;;;;;11.17;9.43;;;20.10;99.90;;;;;;5019717;28;20301;-49
2022/08/16 02:37:26;;;;;;;14.90;9.60;;;20.20;99.90;;;;;;5019548;28;20210;-49
2022/08/16 02:40:18;;;;;;;15.87;10.50;;;20.10;99.90;;;;;;5019406;28;20706;-49
2022/08/16 02:42:47;;;;;;;11.43;10.30;;;20.30;99.90;;;;;;5019208;28;20235;-50
2022/08/16 02:45:20;;;;;;;12.17;10.10;;;20.10;99.90;;;;;;5019705;28;20276;-49
2022/08/16 02:47:54;;;;;;;14.00;10.60;;;20.30;99.90;;;;;;5018794;28;20213;-49
2022/08/16 02:50:41;;;;;;;11.63;10.40;;;20.40;99.90;;;;;;5019018;28;20224;-51
2022/08/16 02:53:28;;;;;;;11.13;10.03;;;20.20;99.90;;;;;;5020104;28;20895;-51
2022/08/16 02:55:55;;;;;;;11.93;10.70;;;20.20;99.90;;;;;;5018649;28;20228;-51
2022/08/16 02:58:22;;;;;;;11.30;9.53;;;20.20;99.90;;;;;;5015646;28;20598;-51
2022/08/16 03:00:52;;;;;;;11.07;9.93;;;20.30;99.90;;;;;;5020717;28;20608;-51
2022/08/16 03:03:23;;;;;;;12.47;11.00;;;20.30;99.90;;;;;;5018932;28;20224;-51
2022/08/16 03:05:51;;;;;;;13.90;11.30;;;20.10;99.90;;;;;;5019455;28;20260;-51
2022/08/16 03:08:21;;;;;;;15.33;11.20;;;20.20;99.90;;;;;;5019453;28;20217;-50
2022/08/16 03:11:08;;;;;;;14.60;10.77;;;20.30;99.90;;;;;;5020003;28;20212;-52
2022/08/16 03:13:49;;;;;;;11.83;10.50;;;20.20;99.90;;;;;;5019919;28;20204;-50
2022/08/16 03:16:17;;;;;;;13.23;11.23;;;20.20;99.90;;;;;;5018284;28;20209;-51
2022/08/16 03:19:05;;;;;;;12.43;11.13;;;20.10;99.90;;;;;;5019305;28;20654;-52
2022/08/16 03:21:32;;;;;;;13.33;11.80;;;20.10;99.90;;;;;;5018863;28;20653;-52
2022/08/16 03:24:05;;;;;;;14.40;11.73;;;20.00;99.90;;;;;;5018885;28;20271;-50
2022/08/16 03:26:52;;;;;;;13.60;12.13;;;19.90;99.90;;;;;;5019130;28;20415;-52
2022/08/16 03:29:26;;;;;;;14.27;11.80;;;20.00;99.90;;;;;;5019654;28;20254;-50
2022/08/16 03:31:56;;;;;;;14.30;11.90;;;19.90;99.90;;;;;;5018380;28;20237;-51
2022/08/16 03:34:25;;;;;;;13.93;11.47;;;19.90;99.90;;;;;;5017014;28;20218;-50
2022/08/16 03:36:52;;;;;;;17.17;12.77;;;20.00;99.90;;;;;;5020629;28;20271;-50
2022/08/16 03:39:19;;;;;;;15.13;11.97;;;20.00;99.90;;;;;;5019308;28;20228;-50
2022/08/16 03:41:46;;;;;;;14.07;12.00;;;20.10;99.90;;;;;;5021529;28;20255;-50
2022/08/16 03:44:17;;;;;;;12.43;11.20;;;20.00;99.90;;;;;;5023331;28;20288;-51
2022/08/16 03:47:04;;;;;;;13.40;12.00;;;20.20;99.90;;;;;;5021603;28;20214;-52
2022/08/16 03:49:36;;;;;;;16.13;12.03;;;19.90;99.90;;;;;;5023110;28;20620;-51
2022/08/16 03:52:05;;;;;;;13.90;12.07;;;19.60;99.90;;;;;;5022066;28;20205;-50
2022/08/16 03:54:32;;;;;;;13.83;11.97;;;19.70;99.90;;;;;;5022411;28;20278;-51
2022/08/16 03:57:02;;;;;;;16.27;12.60;;;19.80;99.90;;;;;;5022803;28;20253;-50
2022/08/16 03:59:31;;;;;;;13.07;11.77;;;19.90;99.90;;;;;;5022402;28;20295;-49
2022/08/16 04:01:59;;;;;;;15.77;12.63;;;19.90;99.90;;;;;;5020156;28;20200;-50
2022/08/16 04:04:28;;;;;;;13.73;11.63;;;20.10;99.90;;;;;;5022546;28;20205;-51
2022/08/16 04:07:01;;;;;;;15.00;12.43;;;20.00;99.90;;;;;;5021511;28;20202;-50
2022/08/16 04:09:33;;;;;;;13.37;11.67;;;20.00;99.90;;;;;;5022477;28;20243;-50
2022/08/16 04:12:03;;;;;;;16.43;12.43;;;20.10;99.90;;;;;;5021546;28;20207;-50
2022/08/16 04:14:50;;;;;;;15.87;14.17;;;20.00;99.90;;;;;;5022251;28;20308;-50
2022/08/16 04:17:17;;;;;;;13.63;12.23;;;20.00;99.90;;;;;;5021564;28;20304;-51
2022/08/16 04:19:45;;;;;;;14.83;13.00;;;20.00;99.90;;;;;;5019791;28;20221;-51
2022/08/16 04:22:13;;;;;;;14.47;13.00;;;19.90;99.90;;;;;;5022222;28;20664;-50
2022/08/16 04:24:43;;;;;;;16.73;12.83;;;19.90;99.90;;;;;;5021706;28;20574;-49
2022/08/16 04:27:21;;;;;;;14.90;13.23;;;20.00;99.90;;;;;;5021604;28;20576;-51
2022/08/16 04:29:50;;;;;;;16.70;12.97;;;20.00;99.90;;;;;;5021285;28;20202;-52
2022/08/16 04:32:18;;;;;;;15.13;12.67;;;20.00;99.90;;;;;;5017890;28;20209;-51
2022/08/16 04:34:45;;;;;;;15.97;13.17;;;20.10;99.90;;;;;;5021690;28;20244;-51
2022/08/16 04:37:13;;;;;;;16.27;13.37;;;20.20;99.90;;;;;;5021940;28;20216;-49
2022/08/16 04:39:42;;;;;;;14.53;12.87;;;20.10;99.90;;;;;;5022291;28;20218;-51
2022/08/16 04:42:16;;;;;;;15.33;12.73;;;20.10;99.90;;;;;;5021787;28;20234;-51
2022/08/16 04:44:45;;;;;;;14.53;13.03;;;20.10;99.90;;;;;;5021611;28;20209;-51
2022/08/16 04:47:27;;;;;;;15.93;13.33;;;20.10;99.90;;;;;;5020363;28;20260;-50
2022/08/16 04:50:05;;;;;;;17.93;13.97;;;20.10;99.90;;;;;;5021547;28;20205;-50
2022/08/16 04:52:34;;;;;;;17.10;13.03;;;20.10;99.90;;;;;;5020236;28;20211;-51
2022/08/16 04:55:09;;;;;;;15.87;12.97;;;20.00;99.90;;;;;;5016814;28;20244;-51
2022/08/16 04:57:38;;;;;;;15.20;13.60;;;19.90;99.90;;;;;;5019755;28;20213;-51
2022/08/16 05:00:11;;;;;;;15.50;13.27;;;19.70;99.90;;;;;;5021671;28;20303;-50
2022/08/16 05:03:04;;;;;;;15.67;14.00;;;19.60;99.90;;;;;;5020575;28;20209;-50
2022/08/16 05:05:36;;;;;;;18.13;14.27;;;19.60;99.90;;;;;;5021068;28;20205;-50
2022/08/16 05:08:24;;;;;;;18.03;14.07;;;19.60;99.90;;;;;;5019828;28;20211;-50
2022/08/16 05:11:04;;;;;;;17.17;13.93;;;19.60;99.90;;;;;;5021572;28;20204;-52
2022/08/16 05:13:36;;;;;;;16.67;14.83;;;19.40;99.90;;;;;;5021490;28;20204;-50
2022/08/16 05:16:08;;;;;;;19.73;14.50;;;19.50;99.90;;;;;;5020195;28;20202;-50
2022/08/16 05:18:45;;;;;;;15.27;13.67;;;19.40;99.90;;;;;;5021370;28;20221;-51
2022/08/16 05:21:12;;;;;;;16.63;14.83;;;19.70;99.90;;;;;;5019895;28;20239;-50
2022/08/16 05:23:39;;;;;;;17.17;15.37;;;19.80;99.90;;;;;;5020202;28;20229;-50
2022/08/16 05:26:06;;;;;;;20.30;14.33;;;19.60;99.90;;;;;;5020441;28;20299;-51
2022/08/16 05:28:46;;;;;;;19.03;16.13;;;19.70;99.90;;;;;;5020116;28;20297;-49
2022/08/16 05:31:26;;;;;;;17.23;15.43;;;19.60;99.90;;;;;;5019579;28;20223;-48
2022/08/16 05:34:00;;;;;;;17.17;15.37;;;19.80;99.90;;;;;;5020440;28;20208;-50
2022/08/16 05:36:31;;;;;;;20.80;16.20;;;19.70;99.90;;;;;;5020244;28;20308;-50
2022/08/16 05:39:03;;;;;;;18.23;15.93;;;19.70;99.90;;;;;;5020065;28;20644;-51
2022/08/16 05:41:30;;;;;;;19.50;16.23;;;19.80;99.90;;;;;;5015133;28;20705;-51
2022/08/16 05:43:59;;;;;;;18.40;16.10;;;19.60;99.90;;;;;;5017470;28;20208;-51
2022/08/16 05:46:31;;;;;;;18.37;16.27;;;19.80;99.90;;;;;;5018868;28;20255;-50
2022/08/16 05:49:01;;;;;;;19.27;16.77;;;19.90;99.90;;;;;;5019779;28;20271;-51
2022/08/16 05:51:36;;;;;;;18.00;16.07;;;19.80;99.90;;;;;;5020221;28;20271;-50
2022/08/16 05:54:06;;;;;;;18.53;16.23;;;19.70;99.90;;;;;;5019680;28;20240;-51
2022/08/16 05:56:35;;;;;;;19.03;16.57;;;19.80;99.90;;;;;;5016654;28;20660;-50
2022/08/16 05:59:04;;;;;;;18.07;16.10;;;19.80;99.90;;;;;;5019486;28;20241;-50
2022/08/16 06:01:33;;;;;;;19.53;16.17;;;20.00;99.90;;;;;;5008074;28;20618;-51
2022/08/16 06:04:09;;;;;;;19.87;17.23;;;20.00;99.90;;;;;;5019877;28;20204;-51
2022/08/16 06:06:56;;;;;;;20.00;16.27;;;19.90;99.90;;;;;;5019702;28;20211;-50
2022/08/16 06:09:24;;;;;;;22.90;16.53;;;20.00;99.90;;;;;;5019884;28;20573;-51
2022/08/16 06:12:14;;;;;;;19.23;16.43;;;20.30;99.90;;;;;;5019435;28;20215;-51
2022/08/16 06:14:57;;;;;;;20.93;16.60;;;20.30;99.90;;;;;;5020766;28;20571;-50
2022/08/16 06:17:26;;;;;;;19.70;17.43;;;20.30;99.90;;;;;;5019308;28;20267;-50
2022/08/16 06:20:18;;;;;;;19.40;16.93;;;20.30;99.90;;;;;;5018715;28;20247;-50
2022/08/16 06:22:55;;;;;;;18.77;16.60;;;20.40;99.90;;;;;;5026101;28;20616;-50
2022/08/16 06:25:30;;;;;;;18.63;16.67;;;20.50;99.90;;;;;;5019925;28;20200;-51
2022/08/16 06:28:06;;;;;;;19.27;16.90;;;20.40;99.90;;;;;;5019055;28;20253;-51
2022/08/16 06:30:35;;;;;;;18.33;15.63;;;20.60;99.90;;;;;;5019919;28;20244;-50
2022/08/16 06:33:15;;;;;;;19.20;16.40;;;20.80;99.90;;;;;;5019142;28;20211;-50
2022/08/16 06:35:49;;;;;;;22.87;17.43;;;20.70;99.90;;;;;;5019199;28;20583;-51
2022/08/16 06:38:21;;;;;;;18.73;16.63;;;20.70;99.90;;;;;;5019010;28;20208;-50
2022/08/16 06:41:02;;;;;;;19.00;16.27;;;20.70;99.90;;;;;;5019159;28;20201;-50
2022/08/16 06:43:30;;;;;;;20.13;17.73;;;20.60;99.90;;;;;;5020204;28;20708;-52
2022/08/16 06:45:58;;;;;;;19.13;17.13;;;20.70;99.90;;;;;;5018588;28;20212;-51
2022/08/16 06:48:26;;;;;;;20.53;17.57;;;20.70;99.90;;;;;;5017777;28;20287;-52
2022/08/16 06:51:00;;;;;;;20.23;17.63;;;20.90;99.90;;;;;;5019434;28;20610;-51
2022/08/16 06:53:27;;;;;;;21.00;17.97;;;21.00;99.90;;;;;;5016784;28;20205;-50
2022/08/16 06:55:57;;;;;;;22.40;18.37;;;21.20;99.90;;;;;;5013180;28;20243;-50
2022/08/16 06:58:24;;;;;;;20.13;18.00;;;21.40;99.90;;;;;;5019280;28;20228;-50
2022/08/16 07:01:01;;;;;;;21.27;18.97;;;21.50;99.90;;;;;;5018198;28;20236;-51
2022/08/16 07:03:29;;;;;;;23.10;18.87;;;21.40;99.90;;;;;;5019397;28;20223;-51
2022/08/16 07:05:58;;;;;;;22.63;17.90;;;21.60;99.90;;;;;;5019330;28;20560;-51
2022/08/16 07:08:27;;;;;;;21.93;17.70;;;21.90;99.90;;;;;;5019830;28;20236;-52
2022/08/16 07:10:55;;;;;;;20.97;17.93;;;22.20;99.90;;;;;;5019357;28;20631;-50
2022/08/16 07:13:22;;;;;;;21.73;18.13;;;22.20;99.90;;;;;;5018661;28;20243;-50
2022/08/16 07:16:15;;;;;;;23.10;19.53;;;22.20;99.90;;;;;;5020852;28;20208;-51
2022/08/16 07:18:47;;;;;;;21.40;17.93;;;22.10;99.90;;;;;;5023967;28;20582;-51
2022/08/16 07:21:28;;;;;;;22.27;19.57;;;22.20;99.90;;;;;;5024157;28;20201;-52
2022/08/16 07:24:16;;;;;;;21.27;18.50;;;22.30;99.90;;;;;;5023129;28;20259;-50
2022/08/16 07:26:57;;;;;;;25.93;19.07;;;22.50;99.90;;;;;;5022440;28;20202;-50
2022/08/16 07:29:27;;;;;;;24.23;18.80;;;22.80;99.90;;;;;;5022977;28;20258;-50
2022/08/16 07:31:58;;;;;;;20.50;17.83;;;22.70;99.90;;;;;;5022492;28;20296;-50
2022/08/16 07:34:27;;;;;;;24.27;19.33;;;22.80;99.90;;;;;;5023647;28;20246;-51
2022/08/16 07:37:07;;;;;;;23.73;18.57;;;22.70;99.90;;;;;;5023054;28;20214;-52
2022/08/16 07:39:36;;;;;;;21.30;18.50;;;22.70;99.90;;;;;;5023075;28;20224;-52
2022/08/16 07:42:10;;;;;;;22.40;18.43;;;23.10;99.90;;;;;;5022589;28;20209;-52
2022/08/16 07:44:57;;;;;;;20.27;17.67;;;23.30;99.90;;;;;;5022531;28;20639;-51
2022/08/16 07:47:24;;;;;;;20.70;18.00;;;23.30;99.90;;;;;;5020442;28;20205;-51
2022/08/16 07:49:59;;;;;;;25.53;19.77;;;23.60;99.90;;;;;;5021474;28;20415;-50
2022/08/16 07:52:33;;;;;;;25.27;18.27;;;23.50;99.90;;;;;;5021997;28;20212;-52
2022/08/16 07:55:05;;;;;;;20.43;17.93;;;23.60;99.90;;;;;;5022612;28;20284;-52
2022/08/16 07:57:32;;;;;;;20.07;16.90;;;23.40;99.90;;;;;;5021367;28;20271;-52
2022/08/16 08:00:11;;;;;;;19.20;16.37;;;23.50;99.90;;;;;;5021352;28;20268;-51
2022/08/16 08:02:46;;;;;;;20.37;18.27;;;23.50;99.90;;;;;;5021117;28;20200;-51
2022/08/16 08:05:18;;;;;;;20.23;18.17;;;23.60;99.90;;;;;;5020570;28;20210;-51
2022/08/16 08:08:02;;;;;;;19.20;17.03;;;23.50;99.90;;;;;;5021506;28;20201;-50
2022/08/16 08:10:37;;;;;;;19.30;16.57;;;23.50;99.90;;;;;;5022216;28;20291;-50
2022/08/16 08:13:04;;;;;;;19.83;17.83;;;23.50;99.90;;;;;;5021701;28;20209;-51
2022/08/16 08:15:34;;;;;;;21.60;17.37;;;23.50;99.90;;;;;;5022461;28;20201;-50
2022/08/16 08:18:03;;;;;;;20.17;16.93;;;23.70;99.90;;;;;;5020935;28;20658;-50
2022/08/16 08:20:50;;;;;;;19.37;16.50;;;23.90;99.90;;;;;;5021358;28;20229;-51
2022/08/16 08:23:24;;;;;;;19.40;16.30;;;24.00;99.90;;;;;;5021682;28;20622;-51
2022/08/16 08:25:51;;;;;;;17.10;15.23;;;24.10;99.90;;;;;;5021551;28;20212;-50
2022/08/16 08:28:21;;;;;;;23.83;16.53;;;24.40;99.90;;;;;;5020674;28;20196;-50
2022/08/16 08:30:48;;;;;;;21.13;15.73;;;24.30;99.90;;;;;;5021580;28;20263;-50
2022/08/16 08:33:30;;;;;;;16.77;15.03;;;24.30;99.90;;;;;;5021453;28;20706;-51
2022/08/16 08:36:03;;;;;;;18.20;14.23;;;24.40;99.90;;;;;;5020679;28;20733;-51
2022/08/16 08:38:30;;;;;;;19.07;15.17;;;24.60;99.90;;;;;;5021443;28;20215;-50
2022/08/16 08:41:14;;;;;;;16.03;14.40;;;24.70;99.90;;;;;;5021198;28;20353;-50
2022/08/16 08:43:45;;;;;;;16.20;14.53;;;24.90;99.90;;;;;;5028111;28;20247;-52
2022/08/16 08:46:17;;;;;;;16.90;13.87;;;24.80;99.90;;;;;;5020705;28;20209;-51
2022/08/16 08:48:51;;;;;;;17.33;15.50;;;25.00;99.90;;;;;;5021837;28;20259;-51
2022/08/16 08:51:27;;;;;;;19.33;15.13;;;25.00;99.90;;;;;;5021734;28;20214;-52
2022/08/16 08:54:03;;;;;;;16.60;14.13;;;24.80;99.90;;;;;;5021013;28;20680;-52
2022/08/16 08:56:36;;;;;;;17.17;13.67;;;24.90;99.90;;;;;;5021244;28;20290;-50
2022/08/16 08:59:12;;;;;;;17.37;15.57;;;25.00;99.90;;;;;;5020927;28;20321;-52
2022/08/16 09:01:47;;;;;;;15.60;13.93;;;25.20;99.90;;;;;;5020260;28;20300;-52
2022/08/16 09:04:25;;;;;;;15.83;14.00;;;25.40;99.90;;;;;;5021036;28;20207;-51
2022/08/16 09:06:53;;;;;;;16.63;14.27;;;25.50;99.90;;;;;;5021073;28;20676;-52
2022/08/16 09:09:21;;;;;;;15.93;13.90;;;25.30;99.90;;;;;;5020182;28;20210;-52
2022/08/16 09:11:48;;;;;;;15.53;13.93;;;25.30;99.90;;;;;;5020297;28;20210;-52
2022/08/16 09:14:33;;;;;;;18.70;14.17;;;25.30;99.90;;;;;;5021076;28;20283;-51
2022/08/16 09:17:00;;;;;;;15.57;13.27;;;25.50;99.90;;;;;;5020271;28;20579;-52
2022/08/16 09:19:47;;;;;;;14.13;11.77;;;25.70;99.90;;;;;;5020413;28;20225;-52
2022/08/16 09:22:26;;;;;;;13.97;12.50;;;26.10;99.90;;;;;;5020178;28;20748;-49
2022/08/16 09:24:54;;;;;;;15.88;12.95;;;26.50;99.90;;;;;;5020535;28;20291;-52
2022/08/16 09:27:38;;;;;;;15.68;12.80;;;26.60;99.90;;;;;;5019147;28;20232;-52
2022/08/16 09:30:23;;;;;;;15.85;12.68;;;26.50;99.90;;;;;;5020750;28;20209;-50
2022/08/16 09:33:03;;;;;;;13.35;12.05;;;26.30;99.90;;;;;;5019525;28;20219;-51
2022/08/16 09:35:33;;;;;;;14.05;12.65;;;26.40;99.90;;;;;;5020899;28;20258;-51
2022/08/16 09:38:04;;;;;;;13.27;11.93;;;26.70;99.90;;;;;;5020328;28;20251;-51
2022/08/16 09:40:34;;;;;;;13.60;12.15;;;26.80;99.90;;;;;;5019383;28;20569;-54
2022/08/16 09:43:17;;;;;;;12.60;11.38;;;26.70;99.90;;;;;;5021263;28;20203;-53
2022/08/16 09:46:06;;;;;;;12.38;10.50;;;26.80;99.90;;;;;;5018915;28;20202;-54
2022/08/16 09:48:53;;;;;;;11.15;10.05;;;27.20;99.90;;;;;;5019237;28;20207;-53
2022/08/16 09:51:25;;;;;;;11.23;9.63;;;26.90;99.90;;;;;;5014720;28;20554;-54
2022/08/16 09:54:02;;;;;;;10.88;9.77;;;27.00;99.90;;;;;;5019301;28;20635;-52
2022/08/16 09:56:34;;;;;;;14.50;10.63;;;27.10;99.90;;;;;;5016514;28;20275;-52
2022/08/16 09:59:03;;;;;;;9.88;8.90;;;26.80;99.90;;;;;;5019766;28;20252;-52
2022/08/16 10:01:35;;;;;;;10.88;9.88;;;27.40;99.90;;;;;;5018718;28;20253;-53
2022/08/16 10:04:04;;;;;;;10.68;9.43;;;27.60;99.90;;;;;;5013757;28;20216;-53
2022/08/16 10:06:56;;;;;;;10.93;9.82;;;27.50;99.90;;;;;;5018998;28;20756;-53
2022/08/16 10:09:24;;;;;;;10.18;8.85;;;27.10;99.90;;;;;;5019648;28;20319;-52
2022/08/16 10:14:56;;;;;;;15.32;10.85;;;27.20;99.90;;;;;;5019512;28;20205;-54
2022/08/16 10:17:23;;;;;;;10.32;9.35;;;27.10;99.90;;;;;;5018966;28;20567;-54
2022/08/16 10:19:54;;;;;;;11.35;10.25;;;27.00;99.90;;;;;;5019874;28;20222;-53
2022/08/16 10:22:22;;;;;;;12.43;8.85;;;27.20;99.90;;;;;;5019440;28;20208;-54
2022/08/16 10:24:49;;;;;;;10.30;7.47;;;27.20;99.90;;;;;;5018887;28;20259;-54
2022/08/16 10:27:26;;;;;;;10.33;8.40;;;27.40;99.90;;;;;;5019004;28;20283;-54
2022/08/16 10:30:12;;;;;;;8.50;7.70;;;27.30;99.90;;;;;;5019569;28;20214;-54
2022/08/16 10:32:56;;;;;;;8.53;7.73;;;27.30;99.90;;;;;;5020051;28;20215;-53
2022/08/16 10:35:24;;;;;;;9.67;7.97;;;27.40;99.90;;;;;;5015563;28;20208;-54
2022/08/16 10:37:58;;;;;;;10.80;8.97;;;27.50;99.90;;;;;;5019214;28;20240;-53
2022/08/16 10:40:26;;;;;;;9.90;8.53;;;27.30;99.90;;;;;;5018013;28;20697;-53
2022/08/16 10:42:59;;;;;;;10.97;7.80;;;27.60;99.90;;;;;;5018926;28;20251;-52
2022/08/16 10:45:28;;;;;;;7.53;6.73;;;27.60;99.90;;;;;;5015877;28;20254;-53
2022/08/16 10:48:08;;;;;;;8.23;7.18;;;27.60;99.90;;;;;;5018880;28;20205;-52
2022/08/16 10:50:57;;;;;;;11.82;8.23;;;27.60;99.90;;;;;;5021988;28;20209;-53
2022/08/16 10:53:30;;;;;;;10.20;7.10;;;27.30;99.90;;;;;;5023464;28;20298;-53
2022/08/16 10:56:09;;;;;;;12.37;8.60;;;27.20;99.90;;;;;;5023574;28;20816;-52
2022/08/16 10:58:57;;;;;;;7.87;7.13;;;27.20;99.90;;;;;;5023701;28;20204;-53
2022/08/16 11:01:44;;;;;;;9.43;7.70;;;27.30;99.90;;;;;;5022027;28;20225;-52
2022/08/16 11:04:31;;;;;;;9.20;7.00;;;27.50;99.90;;;;;;5023271;28;20304;-53
2022/08/16 11:07:18;;;;;;;9.37;7.53;;;27.60;99.90;;;;;;5022998;28;20219;-53
2022/08/16 11:10:06;;;;;;;11.73;7.90;;;28.10;99.90;;;;;;5022389;28;20235;-53
2022/08/16 11:12:52;;;;;;;7.80;6.80;;;27.90;99.90;;;;;;5022087;28;20580;-53
2022/08/16 11:15:20;;;;;;;7.57;6.83;;;28.30;99.90;;;;;;5023286;28;20548;-52
2022/08/16 11:17:51;;;;;;;13.37;8.63;;;28.90;99.90;;;;;;5022097;28;20660;-53
2022/08/16 11:20:40;;;;;;;10.83;7.60;;;28.80;99.90;;;;;;5022551;28;20236;-53
2022/08/16 11:23:15;;;;;;;9.30;7.67;;;29.00;99.90;;;;;;5020970;28;20714;-54
2022/08/16 11:25:42;;;;;;;8.73;6.77;;;28.90;99.90;;;;;;5018709;28;20591;-53
2022/08/16 11:28:29;;;;;;;7.63;6.90;;;29.40;99.90;;;;;;5021856;28;20209;-53
2022/08/16 11:31:16;;;;;;;11.93;8.07;;;29.30;99.90;;;;;;5022049;28;20246;-54
2022/08/16 11:33:43;;;;;;;7.13;6.43;;;29.90;99.90;;;;;;5023406;28;20209;-53
2022/08/16 11:36:18;;;;;;;6.80;6.18;;;29.70;99.90;;;;;;5023080;28;20212;-54
2022/08/16 11:38:58;;;;;;;6.75;6.15;;;30.00;99.90;;;;;;5022982;28;20208;-52
2022/08/16 11:41:26;;;;;;;6.72;6.13;;;30.10;99.90;;;;;;5023097;28;20221;-54
2022/08/16 11:43:58;;;;;;;10.48;7.80;;;30.10;99.90;;;;;;5021579;28;20205;-53
2022/08/16 11:46:26;;;;;;;8.88;6.68;;;30.20;99.90;;;;;;5016706;28;20227;-54
2022/08/16 11:49:12;;;;;;;9.18;6.90;;;30.50;99.90;;;;;;5021979;28;20201;-54
2022/08/16 11:51:44;;;;;;;6.65;6.05;;;30.20;99.90;;;;;;5022438;28;20654;-53
2022/08/16 11:54:12;;;;;;;10.98;7.68;;;30.00;99.90;;;;;;5021541;28;20644;-54
2022/08/16 11:56:51;;;;;;;9.07;7.40;;;29.30;99.90;;;;;;5021552;28;20720;-54
2022/08/16 11:59:26;;;;;;;8.52;7.72;;;28.70;99.90;;;;;;5020822;28;20240;-54
2022/08/16 12:01:56;;;;;;;9.50;7.10;;;28.30;99.90;;;;;;5020347;28;20618;-53
2022/08/16 12:04:26;;;;;;;6.65;5.95;;;28.30;99.90;;;;;;5022421;28;20205;-51
2022/08/16 12:06:53;;;;;;;6.45;5.85;;;28.10;99.90;;;;;;5019508;28;20676;-53
2022/08/16 12:09:22;;;;;;;9.07;5.97;;;28.00;99.90;;;;;;5021790;28;20213;-52
2022/08/16 12:11:50;;;;;;;6.82;5.88;;;27.90;99.90;;;;;;5022317;28;20197;-53
2022/08/16 12:14:20;;;;;;;7.63;6.43;;;28.00;99.90;;;;;;5019382;28;20228;-52
2022/08/16 12:16:53;;;;;;;6.88;5.82;;;27.90;99.90;;;;;;5020937;28;20688;-53
2022/08/16 12:19:23;;;;;;;8.30;5.83;;;28.00;99.90;;;;;;5021649;28;20673;-53
2022/08/16 12:22:03;;;;;;;7.93;5.13;;;28.10;99.90;;;;;;5021863;28;20700;-53
2022/08/16 12:24:47;;;;;;;8.93;5.03;;;28.50;99.90;;;;;;5020965;28;20211;-54
2022/08/16 12:27:20;;;;;;;5.38;4.97;;;29.00;99.90;;;;;;5021319;28;20201;-53
2022/08/16 12:29:52;;;;;;;5.15;4.55;;;29.30;99.90;;;;;;5022221;28;20208;-53
2022/08/16 12:32:19;;;;;;;4.25;3.85;;;29.50;99.90;;;;;;5021176;28;20274;-53
2022/08/16 12:35:10;;;;;;;8.32;5.22;;;30.00;99.90;;;;;;5020816;28;20239;-53
2022/08/16 12:37:38;;;;;;;6.47;5.30;;;29.70;99.90;;;;;;5020604;28;20209;-53
2022/08/16 12:40:09;;;;;;;5.90;5.30;;;29.70;99.90;;;;;;5021371;28;20217;-54
2022/08/16 12:42:53;;;;;;;5.28;4.50;;;30.40;99.90;;;;;;5021557;28;20194;-53
2022/08/16 12:45:31;;;;;;;5.57;4.97;;;30.10;99.90;;;;;;5021135;28;20204;-53
2022/08/16 12:51:11;;;;;;;4.25;3.65;;;30.50;99.90;;;;;;5021639;28;20698;-53
2022/08/16 12:53:50;;;;;;;5.13;3.17;;;30.80;99.90;;;;;;5021200;28;20204;-53
2022/08/16 12:56:19;;;;;;;5.10;4.57;;;31.20;99.90;;;;;;5021233;28;20259;-53
2022/08/16 12:58:49;;;;;;;6.32;5.72;;;31.00;99.90;;;;;;5020758;28;20212;-53
2022/08/16 13:01:25;;;;;;;5.65;5.13;;;31.20;99.90;;;;;;5016602;28;20311;-56
2022/08/16 13:03:54;;;;;;;4.68;4.28;;;31.70;99.90;;;;;;5021126;28;20200;-54
2022/08/16 13:06:42;;;;;;;8.45;5.35;;;32.70;99.90;;;;;;5020247;28;20252;-54
2022/08/16 13:09:19;;;;;;;5.93;5.32;;;33.40;99.90;;;;;;5018972;28;20286;-54
2022/08/16 13:12:01;;;;;;;7.55;4.65;;;31.90;99.90;;;;;;5020527;28;20287;-55
2022/08/16 13:14:36;;;;;;;5.75;4.78;;;32.00;99.90;;;;;;5019944;28;20213;-55
2022/08/16 13:17:07;;;;;;;7.93;4.53;;;32.00;99.90;;;;;;5020364;28;20613;-55